Time;durP1;ratioP1;P1;durP2;ratioP2;P2;SDS_P1;SDS_P2;PMS_P1;PMS_P2;Temp;Humidity;BMP_temperature;BMP_pressure;BME280_temperature;BME280_humidity;BME280_pressure;Samples;Min_cycle;Max_cycle;Signal;HPM_P1;HPM_P2
2022/03/21 00:00:50;;;;;;;;;;;12.20;99.90;;;;;;4938763;29;20327;-89
2022/03/21 00:03:17;;;;;;;;;;;12.20;99.90;;;;;;4939247;29;19910;-89
2022/03/21 00:05:44;;;;;;;;;;;12.20;99.90;;;;;;4940354;29;19919;-89
2022/03/21 00:08:11;;;;;;;;;;;12.20;99.90;;;;;;4922589;29;20005;-89
2022/03/21 00:10:40;;;;;;;;;;;12.20;99.90;;;;;;4941449;29;19929;-89
2022/03/21 00:13:06;;;;;;;;;;;12.10;99.90;;;;;;4938769;29;19965;-89
2022/03/21 00:15:32;;;;;;;;;;;12.20;99.90;;;;;;4941701;29;19911;-88
2022/03/21 00:18:04;;;;;;;;;;;12.20;99.90;;;;;;4939864;29;19911;-90
2022/03/21 00:20:30;;;;;;;;;;;12.20;99.90;;;;;;4939884;29;19915;-89
2022/03/21 00:22:56;;;;;;;;;;;12.20;99.90;;;;;;4938519;29;19918;-90
2022/03/21 00:25:22;;;;;;;;;;;12.20;99.90;;;;;;4938045;29;20397;-89
2022/03/21 00:27:47;;;;;;;;;;;12.10;99.90;;;;;;4936175;29;19911;-92
2022/03/21 00:30:13;;;;;;;;;;;12.10;99.90;;;;;;4937110;29;19919;-93
2022/03/21 00:32:39;;;;;;;;;;;12.10;99.90;;;;;;4935931;29;19965;-89
2022/03/21 00:35:05;;;;;;;;;;;12.10;99.90;;;;;;4920086;29;19918;-90
2022/03/21 00:37:31;;;;;;;;;;;12.00;99.90;;;;;;4935371;29;19911;-90
2022/03/21 00:39:57;;;;;;;;;;;12.00;99.90;;;;;;4936500;29;19941;-90
2022/03/21 00:42:23;;;;;;;;;;;12.00;99.90;;;;;;4936602;29;19942;-90
2022/03/21 00:44:48;;;;;;;;;;;12.00;99.90;;;;;;4919356;29;20492;-90
2022/03/21 00:47:16;;;;;;;;;;;12.00;99.90;;;;;;4936684;29;20374;-90
2022/03/21 00:49:43;;;;;;;;;;;12.00;99.90;;;;;;4936645;29;20375;-90
2022/03/21 00:52:08;;;;;;;;;;;11.90;99.90;;;;;;4936320;29;19939;-89
2022/03/21 00:54:34;;;;;;;;;;;11.90;99.90;;;;;;4935171;29;19911;-89
2022/03/21 00:57:00;;;;;;;;;;;11.80;99.90;;;;;;4936476;29;19915;-90
2022/03/21 00:59:25;;;;;;;;;;;11.80;99.90;;;;;;4920323;29;19915;-90
2022/03/21 01:01:51;;;;;;;;;;;11.80;99.90;;;;;;4936287;29;19939;-90
2022/03/21 01:04:17;;;;;;;;;;;11.80;99.90;;;;;;4937333;29;20488;-90
2022/03/21 01:06:42;;;;;;;;;;;11.70;99.90;;;;;;4934711;29;20405;-90
2022/03/21 01:09:10;;;;;;;;;;;11.60;99.90;;;;;;4934559;29;19918;-89
2022/03/21 01:11:36;;;;;;;;;;;11.60;99.90;;;;;;4934644;29;20183;-88
2022/03/21 01:14:01;;;;;;;;;;;11.60;99.90;;;;;;4935536;29;20382;-89
2022/03/21 01:16:27;;;;;;;;;;;11.50;99.90;;;;;;4934710;29;19911;-90
2022/03/21 01:18:52;;;;;;;;;;;11.50;99.90;;;;;;4936430;29;19966;-90
2022/03/21 01:21:18;;;;;;;;;;;11.50;99.90;;;;;;4934652;29;19984;-89
2022/03/21 01:23:43;;;;;;;;;;;11.40;99.90;;;;;;4918788;29;19918;-89
2022/03/21 01:26:09;;;;;;;;;;;11.40;99.90;;;;;;4935720;29;19946;-90
2022/03/21 01:28:34;;;;;;;;;;;11.30;99.90;;;;;;4937201;29;19911;-90
2022/03/21 01:31:00;;;;;;;;;;;11.40;99.90;;;;;;4935574;29;19943;-90
2022/03/21 01:33:27;;;;;;;;;;;11.40;99.90;;;;;;4934237;29;19911;-89
2022/03/21 01:35:52;;;;;;;;;;;11.40;99.90;;;;;;4934483;29;19967;-90
2022/03/21 01:38:18;;;;;;;;;;;11.40;99.90;;;;;;4933983;29;19911;-89
2022/03/21 01:40:43;;;;;;;;;;;11.30;99.90;;;;;;4935514;29;19911;-89
2022/03/21 01:43:12;;;;;;;;;;;11.20;99.90;;;;;;4934261;29;19911;-89
2022/03/21 01:45:38;;;;;;;;;;;11.20;99.90;;;;;;4934089;29;19911;-90
2022/03/21 01:48:04;;;;;;;;;;;11.20;99.90;;;;;;4935381;29;19915;-90
2022/03/21 01:50:29;;;;;;;;;;;11.30;99.90;;;;;;4935199;29;19998;-89
2022/03/21 01:55:43;;;;;;;;;;;11.30;99.90;;;;;;4934850;29;19918;-90
2022/03/21 01:55:43;;;;;;;;;;;11.30;99.90;;;;;;4934917;29;19910;-90
2022/03/21 01:58:09;;;;;;;;;;;11.20;99.90;;;;;;4934896;29;19926;-89
2022/03/21 02:00:34;;;;;;;;;;;11.20;99.90;;;;;;4935397;29;20455;-90
2022/03/21 02:03:00;;;;;;;;;;;11.20;99.90;;;;;;4933811;29;19910;-90
2022/03/21 02:05:26;;;;;;;;;;;11.20;99.90;;;;;;4918102;29;19918;-90
2022/03/21 02:07:53;;;;;;;;;;;11.20;99.90;;;;;;4933596;29;19911;-90
2022/03/21 02:10:19;;;;;;;;;;;11.20;99.90;;;;;;4934610;29;19923;-90
2022/03/21 02:12:45;;;;;;;;;;;11.20;99.90;;;;;;4917769;29;19918;-90
2022/03/21 02:15:11;;;;;;;;;;;11.10;99.90;;;;;;4933637;29;19911;-89
2022/03/21 02:17:38;;;;;;;;;;;11.10;99.90;;;;;;4933620;29;20013;-90
2022/03/21 02:20:05;;;;;;;;;;;11.20;99.90;;;;;;4934951;29;19998;-90
2022/03/21 02:22:42;;;;;;;;;;;11.10;99.90;;;;;;4933332;29;20382;-90
2022/03/21 02:25:29;;;;;;;;;;;11.10;99.90;;;;;;4934669;29;19911;-89
2022/03/21 02:28:03;;;;;;;;;;;11.10;99.90;;;;;;4933324;29;19917;-88
2022/03/21 02:30:29;;;;;;;;;;;10.90;99.90;;;;;;4934473;29;19925;-90
2022/03/21 02:32:55;;;;;;;;;;;11.00;99.90;;;;;;4934290;29;19919;-88
2022/03/21 02:35:21;;;;;;;;;;;11.00;99.90;;;;;;4934204;29;19911;-89
2022/03/21 02:37:48;;;;;;;;;;;10.90;99.90;;;;;;4934326;29;19914;-89
2022/03/21 02:40:14;;;;;;;;;;;10.90;99.90;;;;;;4934559;29;19918;-89
2022/03/21 02:42:40;;;;;;;;;;;10.90;99.90;;;;;;4934289;29;20009;-89
2022/03/21 02:45:06;;;;;;;;;;;10.90;99.90;;;;;;4934405;29;19946;-90
2022/03/21 02:47:31;;;;;;;;;;;10.90;99.90;;;;;;4932943;29;19911;-89
2022/03/21 02:50:01;;;;;;;;;;;10.90;99.90;;;;;;4932328;29;19920;-89
2022/03/21 02:52:28;;;;;;;;;;;10.80;99.90;;;;;;4932896;29;19910;-89
2022/03/21 02:54:54;;;;;;;;;;;10.80;99.90;;;;;;4933825;29;19911;-89
2022/03/21 02:57:20;;;;;;;;;;;10.80;99.90;;;;;;4934465;29;20387;-89
2022/03/21 02:59:45;;;;;;;;;;;10.70;99.90;;;;;;4933820;29;20447;-90
2022/03/21 03:02:11;;;;;;;;;;;10.70;99.90;;;;;;4933996;29;20371;-89
2022/03/21 03:04:37;;;;;;;;;;;10.80;99.90;;;;;;4933786;29;20390;-88
2022/03/21 03:07:02;;;;;;;;;;;10.80;99.90;;;;;;4916929;29;19953;-90
2022/03/21 03:09:28;;;;;;;;;;;10.70;99.90;;;;;;4933838;29;20005;-89
2022/03/21 03:11:53;;;;;;;;;;;10.70;99.90;;;;;;4933755;29;19968;-89
2022/03/21 03:14:19;;;;;;;;;;;10.70;99.90;;;;;;4916816;29;19954;-90
2022/03/21 03:16:45;;;;;;;;;;;10.60;99.90;;;;;;4934011;29;20359;-90
2022/03/21 03:19:10;;;;;;;;;;;10.60;99.90;;;;;;4933943;29;19911;-89
2022/03/21 03:21:37;;;;;;;;;;;10.60;99.90;;;;;;4933889;29;20001;-89
2022/03/21 03:24:03;;;;;;;;;;;10.60;99.90;;;;;;4933924;29;20370;-89
2022/03/21 03:26:29;;;;;;;;;;;10.60;99.90;;;;;;4932630;29;20287;-90
2022/03/21 03:28:54;;;;;;;;;;;10.60;99.90;;;;;;4932322;29;19911;-90
2022/03/21 03:31:20;;;;;;;;;;;10.50;99.90;;;;;;4916807;29;19946;-90
2022/03/21 03:33:46;;;;;;;;;;;10.50;99.90;;;;;;4934270;29;19915;-90
2022/03/21 03:36:12;;;;;;;;;;;10.50;99.90;;;;;;4933959;29;19918;-89
2022/03/21 03:38:38;;;;;;;;;;;10.50;99.90;;;;;;4932544;29;19911;-90
2022/03/21 03:41:03;;;;;;;;;;;10.60;99.90;;;;;;4934834;29;20027;-88
2022/03/21 03:43:29;;;;;;;;;;;10.50;99.90;;;;;;4932651;29;19922;-90
2022/03/21 03:45:57;;;;;;;;;;;10.50;99.90;;;;;;4933729;29;19910;-89
2022/03/21 03:48:22;;;;;;;;;;;10.50;99.90;;;;;;4932392;29;19918;-89
2022/03/21 03:50:48;;;;;;;;;;;10.50;99.90;;;;;;4933559;29;19918;-89
2022/03/21 03:53:15;;;;;;;;;;;10.50;99.90;;;;;;4916575;29;19917;-90
2022/03/21 03:55:40;;;;;;;;;;;10.50;99.90;;;;;;4933599;29;19917;-89
2022/03/21 03:58:06;;;;;;;;;;;10.50;99.90;;;;;;4933334;29;19923;-90
2022/03/21 04:00:31;;;;;;;;;;;10.40;99.90;;;;;;4933797;29;19962;-89
2022/03/21 04:05:41;;;;;;;;;;;10.50;99.90;;;;;;4937500;29;20442;-88
2022/03/21 04:08:07;;;;;;;;;;;10.50;99.90;;;;;;4937203;29;19915;-90
2022/03/21 04:10:33;;;;;;;;;;;10.40;99.90;;;;;;4935757;29;19947;-89
2022/03/21 04:12:58;;;;;;;;;;;10.40;99.90;;;;;;4935747;29;19977;-89
2022/03/21 04:15:24;;;;;;;;;;;10.30;99.90;;;;;;4921127;29;20291;-90
2022/03/21 04:17:50;;;;;;;;;;;10.40;99.90;;;;;;4935636;29;19962;-90
2022/03/21 04:20:16;;;;;;;;;;;10.30;99.90;;;;;;4936748;29;19910;-90
2022/03/21 04:22:41;;;;;;;;;;;10.30;99.90;;;;;;4937669;29;19933;-90
2022/03/21 04:25:10;;;;;;;;;;;10.30;99.90;;;;;;4937122;29;19911;-89
2022/03/21 04:27:36;;;;;;;;;;;10.30;99.90;;;;;;4935595;29;19911;-89
2022/03/21 04:30:02;;;;;;;;;;;10.30;99.90;;;;;;4935392;29;20391;-89
2022/03/21 04:32:28;;;;;;;;;;;10.30;99.90;;;;;;4919879;29;20283;-89
2022/03/21 04:34:54;;;;;;;;;;;10.30;99.90;;;;;;4935948;29;19911;-90
2022/03/21 04:37:19;;;;;;;;;;;10.30;99.90;;;;;;4935199;29;20280;-89
2022/03/21 04:39:45;;;;;;;;;;;10.30;99.90;;;;;;4936527;29;20361;-90
2022/03/21 04:42:10;;;;;;;;;;;10.30;99.90;;;;;;4919349;29;20332;-90
2022/03/21 04:44:36;;;;;;;;;;;10.20;99.90;;;;;;4936454;29;20402;-89
2022/03/21 04:47:02;;;;;;;;;;;10.10;99.90;;;;;;4936354;29;19997;-90
2022/03/21 04:49:27;;;;;;;;;;;10.10;99.90;;;;;;4936355;29;20390;-89
2022/03/21 04:51:53;;;;;;;;;;;10.10;99.90;;;;;;4936299;29;19910;-89
2022/03/21 04:54:19;;;;;;;;;;;10.10;99.90;;;;;;4936214;29;19914;-89
2022/03/21 04:56:45;;;;;;;;;;;10.10;99.90;;;;;;4934814;29;19922;-89
2022/03/21 04:59:10;;;;;;;;;;;10.10;99.90;;;;;;4934554;29;19919;-88
2022/03/21 05:01:36;;;;;;;;;;;10.10;99.90;;;;;;4918888;29;19911;-90
2022/03/21 05:04:02;;;;;;;;;;;10.10;99.90;;;;;;4918829;29;19946;-90
2022/03/21 05:06:27;;;;;;;;;;;10.10;99.90;;;;;;4936180;29;19911;-89
2022/03/21 05:08:53;;;;;;;;;;;10.10;99.90;;;;;;4934574;29;20364;-90
2022/03/21 05:11:18;;;;;;;;;;;10.10;99.90;;;;;;4934501;29;20400;-89
2022/03/21 05:13:44;;;;;;;;;;;10.10;99.90;;;;;;4934387;29;20442;-90
2022/03/21 05:16:10;;;;;;;;;;;10.10;99.90;;;;;;4934798;29;20497;-90
2022/03/21 05:18:35;;;;;;;;;;;10.10;99.90;;;;;;4934886;29;20362;-90
2022/03/21 05:21:01;;;;;;;;;;;10.10;99.90;;;;;;4935832;29;19959;-89
2022/03/21 05:31:39;;;;;;;;;;;10.10;99.90;;;;;;4936202;29;20339;-90
2022/03/21 05:36:50;;;;;;;;;;;10.10;99.90;;;;;;4936060;29;20306;-89
2022/03/21 05:39:16;;;;;;;;;;;10.10;99.90;;;;;;4934232;29;20002;-89
2022/03/21 05:41:42;;;;;;;;;;;10.10;99.90;;;;;;4934211;29;20014;-89
2022/03/21 05:44:09;;;;;;;;;;;10.00;99.90;;;;;;4935192;29;20390;-90
2022/03/21 05:46:34;;;;;;;;;;;10.00;99.90;;;;;;4935472;29;19994;-90
2022/03/21 05:49:00;;;;;;;;;;;10.00;99.90;;;;;;4934091;29;19998;-89
2022/03/21 05:51:30;;;;;;;;;;;10.00;99.90;;;;;;4935356;29;20268;-89
2022/03/21 05:54:05;;;;;;;;;;;10.00;99.90;;;;;;4934184;29;19911;-89
2022/03/21 05:56:31;;;;;;;;;;;10.00;99.90;;;;;;4934127;29;20306;-90
2022/03/21 05:58:59;;;;;;;;;;;10.00;99.90;;;;;;4933516;29;20018;-90
2022/03/21 06:01:25;;;;;;;;;;;10.10;99.90;;;;;;4935078;29;19947;-90
2022/03/21 06:03:54;;;;;;;;;;;9.90;99.90;;;;;;4935150;29;20441;-90
2022/03/21 06:06:23;;;;;;;;;;;10.00;99.90;;;;;;4933954;29;19914;-90
2022/03/21 06:08:49;;;;;;;;;;;9.90;99.90;;;;;;4917930;29;20351;-89
2022/03/21 06:11:15;;;;;;;;;;;9.80;99.90;;;;;;4935932;29;19954;-90
2022/03/21 06:13:43;;;;;;;;;;;9.80;99.90;;;;;;4933671;29;19964;-89
2022/03/21 06:16:12;;;;;;;;;;;9.70;99.90;;;;;;4939019;29;20394;-96
2022/03/21 06:24:30;;;;;;;;;;;9.60;99.90;;;;;;4974629;23;19934;-95
2022/03/21 06:33:32;;;;;;;;;;;9.70;99.90;;;;;;4873256;29;19923;-96
2022/03/21 06:40:00;;;;;;;;;;;9.70;99.90;;;;;;4835648;29;19936;-96
2022/03/21 06:52:18;;;;;;;;;;;10.00;99.90;;;;;;4733443;30;19925;-96
2022/03/21 07:04:51;;;;;;;;;;;10.20;99.90;;;;;;4671595;30;19915;-96
2022/03/21 07:10:25;;;;;;;;;;;10.30;99.90;;;;;;4766892;30;19925;-96
2022/03/21 07:12:54;;;;;;;;;;;10.30;99.90;;;;;;4775803;30;19909;-96
2022/03/21 07:15:32;;;;;;;;;;;10.30;99.90;;;;;;4783861;29;20194;-96
2022/03/21 07:17:58;;;;;;;;;;;10.40;99.90;;;;;;4847187;29;19908;-96
2022/03/21 07:20:27;;;;;;;;;;;10.40;99.90;;;;;;4898736;29;19917;-90
2022/03/21 07:22:53;;;;;;;;;;;10.50;99.90;;;;;;4951148;29;19910;-90
2022/03/21 07:25:19;;;;;;;;;;;10.60;99.90;;;;;;4950995;28;19926;-90
2022/03/21 07:27:45;;;;;;;;;;;10.60;99.90;;;;;;4951059;29;20260;-90
2022/03/21 07:30:12;;;;;;;;;;;10.60;99.90;;;;;;4951016;29;19918;-90
2022/03/21 07:32:38;;;;;;;;;;;10.80;99.90;;;;;;4950710;29;20426;-91
2022/03/21 07:35:04;;;;;;;;;;;10.90;99.90;;;;;;4952882;28;19911;-91
2022/03/21 07:37:37;;;;;;;;;;;11.00;99.90;;;;;;4954032;29;19957;-91
2022/03/21 07:40:03;;;;;;;;;;;11.10;99.90;;;;;;4955903;29;20382;-90
2022/03/21 07:42:29;;;;;;;;;;;11.20;99.90;;;;;;4954588;29;19965;-91
2022/03/21 07:47:38;;;;;;;;;;;11.30;99.90;;;;;;4956348;29;19981;-91
2022/03/21 07:50:06;;;;;;;;;;;11.40;99.90;;;;;;4954531;29;20374;-91
2022/03/21 07:52:31;;;;;;;;;;;11.40;99.90;;;;;;4954535;29;20306;-90
2022/03/21 07:54:57;;;;;;;;;;;11.50;99.90;;;;;;4956222;29;19925;-91
2022/03/21 07:57:24;;;;;;;;;;;11.60;99.90;;;;;;4954733;29;19997;-91
2022/03/21 07:59:50;;;;;;;;;;;11.80;99.90;;;;;;4955664;29;19977;-91
2022/03/21 08:02:19;;;;;;;;;;;12.00;99.90;;;;;;4954557;29;19910;-91
2022/03/21 08:04:46;;;;;;;;;;;12.20;99.90;;;;;;4954156;29;20283;-91
2022/03/21 08:07:12;;;;;;;;;;;12.30;99.90;;;;;;4955930;29;19918;-91
2022/03/21 08:09:38;;;;;;;;;;;12.40;99.90;;;;;;4954236;29;19915;-91
2022/03/21 08:12:03;;;;;;;;;;;12.50;99.90;;;;;;4955457;29;19910;-91
2022/03/21 08:14:29;;;;;;;;;;;12.60;99.90;;;;;;4955529;29;19917;-91
2022/03/21 08:16:55;;;;;;;;;;;12.70;99.90;;;;;;4953869;29;19915;-91
2022/03/21 08:19:24;;;;;;;;;;;12.80;99.90;;;;;;4954003;29;19911;-90
2022/03/21 08:21:50;;;;;;;;;;;12.90;99.90;;;;;;4954192;29;19910;-91
2022/03/21 08:24:16;;;;;;;;;;;13.10;99.90;;;;;;4955507;29;19910;-91
2022/03/21 08:26:43;;;;;;;;;;;13.20;99.90;;;;;;4954055;28;19953;-91
2022/03/21 08:29:08;;;;;;;;;;;13.30;99.90;;;;;;4955279;29;19974;-91
2022/03/21 08:31:34;;;;;;;;;;;13.40;99.90;;;;;;4954046;29;19915;-91
2022/03/21 08:33:59;;;;;;;;;;;13.40;99.90;;;;;;4955207;29;19957;-91
2022/03/21 08:36:27;;;;;;;;;;;13.40;99.90;;;;;;4955447;29;19917;-91
2022/03/21 08:38:53;;;;;;;;;;;13.50;99.90;;;;;;4954170;29;20385;-88
2022/03/21 08:41:21;;;;;;;;;;;13.50;99.90;;;;;;4954940;29;20001;-89
2022/03/21 08:43:47;;;;;;;;;;;13.50;99.90;;;;;;4937672;29;20422;-88
2022/03/21 08:46:12;;;;;;;;;;;13.60;99.90;;;;;;4954275;28;20123;-91
2022/03/21 08:51:24;;;;;;;;;;;13.60;99.90;;;;;;4955178;29;19926;-88
2022/03/21 08:53:51;;;;;;;;;;;13.60;99.90;;;;;;4953379;29;19910;-89
2022/03/21 08:56:17;;;;;;;;;;;13.50;99.90;;;;;;4954721;29;19930;-89
2022/03/21 08:58:42;;;;;;;;;;;13.50;99.90;;;;;;4937146;29;19911;-89
2022/03/21 09:01:08;;;;;;;;;;;13.50;99.90;;;;;;4954747;29;19911;-89
2022/03/21 09:03:34;;;;;;;;;;;13.40;99.90;;;;;;4954691;29;19916;-89
2022/03/21 09:05:59;;;;;;;;;;;13.40;99.90;;;;;;4954643;29;19910;-89
2022/03/21 09:08:25;;;;;;;;;;;13.40;99.90;;;;;;4953368;29;20465;-89
2022/03/21 09:10:52;;;;;;;;;;;13.40;99.90;;;;;;4953132;29;19923;-89
2022/03/21 09:13:18;;;;;;;;;;;13.50;99.90;;;;;;4953202;29;20354;-89
2022/03/21 09:15:44;;;;;;;;;;;13.50;99.90;;;;;;4954361;29;19911;-89
2022/03/21 09:18:10;;;;;;;;;;;13.60;99.90;;;;;;4954242;29;20407;-89
2022/03/21 09:20:35;;;;;;;;;;;13.80;99.90;;;;;;4954399;29;19918;-92
2022/03/21 09:23:01;;;;;;;;;;;14.00;99.90;;;;;;4954351;29;19910;-89
2022/03/21 09:25:26;;;;;;;;;;;14.40;99.90;;;;;;4954143;28;19923;-90
2022/03/21 09:27:52;;;;;;;;;;;14.90;99.90;;;;;;4953050;29;19921;-90
2022/03/21 09:30:17;;;;;;;;;;;15.30;99.90;;;;;;4954135;29;20167;-92
2022/03/21 09:32:43;;;;;;;;;;;15.50;99.90;;;;;;4954181;29;19914;-91
2022/03/21 09:35:09;;;;;;;;;;;15.60;99.90;;;;;;4952871;29;20351;-90
2022/03/21 09:37:34;;;;;;;;;;;15.80;99.90;;;;;;4952903;29;19916;-90
2022/03/21 09:40:00;;;;;;;;;;;15.80;99.90;;;;;;4952809;29;19910;-90
2022/03/21 09:42:26;;;;;;;;;;;16.00;99.90;;;;;;4953850;29;19933;-90
2022/03/21 09:44:53;;;;;;;;;;;16.10;99.90;;;;;;4952545;29;19934;-90
2022/03/21 09:50:08;;;;;;;;;;;15.90;99.90;;;;;;4964814;29;19972;-89
2022/03/21 09:52:33;;;;;;;;;;;15.90;99.90;;;;;;4953995;29;19915;-91
2022/03/21 09:54:59;;;;;;;;;;;15.80;99.90;;;;;;4952594;29;20013;-90
2022/03/21 09:57:26;;;;;;;;;;;15.90;99.90;;;;;;4953609;28;19957;-90
2022/03/21 09:59:52;;;;;;;;;;;15.90;99.90;;;;;;4952271;29;19966;-90
2022/03/21 10:02:18;;;;;;;;;;;15.90;99.90;;;;;;4952192;29;19915;-90
2022/03/21 10:04:44;;;;;;;;;;;15.90;99.90;;;;;;4953555;29;19910;-90
2022/03/21 10:07:10;;;;;;;;;;;15.90;99.90;;;;;;4953916;29;19911;-90
2022/03/21 10:09:36;;;;;;;;;;;16.10;99.90;;;;;;4953687;29;20276;-91
2022/03/21 10:12:03;;;;;;;;;;;16.20;99.90;;;;;;4953664;29;19965;-90
2022/03/21 10:14:32;;;;;;;;;;;16.30;99.90;;;;;;4953514;29;19937;-90
2022/03/21 10:16:58;;;;;;;;;;;16.40;99.90;;;;;;4953644;29;19910;-90
2022/03/21 10:19:24;;;;;;;;;;;16.70;99.90;;;;;;4953564;29;20268;-90
2022/03/21 10:22:10;;;;;;;;;;;17.00;99.90;;;;;;4953122;29;20375;-90
2022/03/21 10:24:36;;;;;;;;;;;17.20;99.90;;;;;;4952794;28;19937;-90
2022/03/21 10:27:03;;;;;;;;;;;17.20;99.90;;;;;;4953389;29;19960;-90
2022/03/21 10:29:29;;;;;;;;;;;17.00;99.90;;;;;;4953008;29;20056;-90
2022/03/21 10:31:55;;;;;;;;;;;16.70;99.90;;;;;;4953196;29;19978;-90
2022/03/21 10:34:22;;;;;;;;;;;16.50;99.90;;;;;;4951859;29;20029;-90
2022/03/21 10:36:57;;;;;;;;;;;16.60;99.90;;;;;;4951918;29;19996;-90
2022/03/21 10:39:22;;;;;;;;;;;16.60;99.90;;;;;;4952968;29;20008;-90
2022/03/21 10:41:53;;;;;;;;;;;16.70;99.90;;;;;;4951543;29;20404;-90
2022/03/21 10:44:20;;;;;;;;;;;16.80;99.90;;;;;;4952920;29;19911;-90
2022/03/21 10:46:50;;;;;;;;;;;16.80;99.90;;;;;;4952994;29;19910;-90
2022/03/21 10:49:25;;;;;;;;;;;16.90;99.90;;;;;;4952863;29;19914;-90
2022/03/21 10:51:51;;;;;;;;;;;17.00;99.90;;;;;;4952987;29;19965;-90
2022/03/21 10:54:34;;;;;;;;;;;17.10;99.90;;;;;;4953198;29;19949;-90
2022/03/21 10:57:00;;;;;;;;;;;17.10;99.90;;;;;;4951522;29;20263;-90
2022/03/21 10:59:25;;;;;;;;;;;17.30;99.90;;;;;;4951191;29;20009;-90
2022/03/21 11:02:08;;;;;;;;;;;17.40;99.90;;;;;;4952593;29;19946;-90
2022/03/21 11:04:34;;;;;;;;;;;17.50;99.90;;;;;;4952602;29;19911;-90
2022/03/21 11:06:59;;;;;;;;;;;17.60;99.90;;;;;;4952520;29;19917;-89
2022/03/21 11:09:25;;;;;;;;;;;17.70;99.90;;;;;;4950999;28;19958;-90
2022/03/21 11:11:51;;;;;;;;;;;17.90;99.90;;;;;;4952643;29;19915;-90
2022/03/21 11:14:16;;;;;;;;;;;17.90;99.90;;;;;;4951340;29;19950;-90
2022/03/21 11:16:42;;;;;;;;;;;18.00;99.90;;;;;;4952540;29;19917;-90
2022/03/21 11:19:08;;;;;;;;;;;18.00;99.90;;;;;;4952387;29;19910;-90
2022/03/21 11:21:33;;;;;;;;;;;18.30;99.90;;;;;;4951138;29;19922;-91
2022/03/21 11:23:59;;;;;;;;;;;18.40;99.90;;;;;;4952272;29;19911;-90
2022/03/21 11:26:38;;;;;;;;;;;18.70;99.90;;;;;;4950877;28;19922;-90
2022/03/21 11:29:07;;;;;;;;;;;18.80;99.90;;;;;;4950989;29;19914;-90
2022/03/21 11:31:41;;;;;;;;;;;18.70;99.90;;;;;;4952514;29;19921;-90
2022/03/21 11:34:22;;;;;;;;;;;18.60;99.90;;;;;;4951055;29;19914;-90
2022/03/21 11:36:51;;;;;;;;;;;18.60;99.90;;;;;;4951025;29;19957;-90
2022/03/21 11:39:17;;;;;;;;;;;18.70;99.90;;;;;;4961070;29;19910;-89
2022/03/21 11:42:09;;;;;;;;;;;18.90;99.90;;;;;;4958072;29;20431;-90
2022/03/21 11:44:35;;;;;;;;;;;19.10;99.90;;;;;;4947407;29;20470;-91
2022/03/21 11:47:19;;;;;;;;;;;19.20;99.90;;;;;;4952157;29;20005;-90
2022/03/21 11:49:44;;;;;;;;;;;19.40;99.90;;;;;;4952535;29;19961;-89
2022/03/21 11:52:11;;;;;;;;;;;19.30;99.90;;;;;;4950969;29;19964;-90
2022/03/21 11:54:37;;;;;;;;;;;19.30;99.90;;;;;;4950902;29;19943;-90
2022/03/21 11:57:09;;;;;;;;;;;19.40;99.90;;;;;;4952002;29;20362;-90
2022/03/21 11:59:35;;;;;;;;;;;19.50;99.90;;;;;;4934729;29;20331;-90
2022/03/21 12:02:09;;;;;;;;;;;19.70;99.90;;;;;;4950680;29;20002;-90
2022/03/21 12:04:35;;;;;;;;;;;19.80;99.90;;;;;;4951976;29;19934;-90
2022/03/21 12:07:13;;;;;;;;;;;19.70;99.90;;;;;;4951953;29;19934;-90
2022/03/21 12:09:40;;;;;;;;;;;19.90;99.90;;;;;;4950794;29;19922;-93
2022/03/21 12:12:06;;;;;;;;;;;20.10;99.90;;;;;;4950912;29;19911;-90
2022/03/21 12:14:37;;;;;;;;;;;20.10;99.90;;;;;;4951905;29;19910;-90
2022/03/21 12:17:05;;;;;;;;;;;20.10;99.90;;;;;;4952007;29;19911;-90
2022/03/21 12:19:57;;;;;;;;;;;20.00;99.90;;;;;;4950583;29;19938;-92
2022/03/21 12:24:55;;;;;;;;;;;19.60;99.90;;;;;;4955042;28;19929;-89
2022/03/21 12:27:31;;;;;;;;;;;19.70;99.90;;;;;;4955288;29;19946;-89
2022/03/21 12:30:15;;;;;;;;;;;19.80;99.90;;;;;;4955238;29;20013;-90
2022/03/21 12:33:12;;;;;;;;;;;19.70;99.90;;;;;;4955219;29;20516;-90
2022/03/21 12:35:44;;;;;;;;;;;19.60;99.90;;;;;;4946697;29;20062;-90
2022/03/21 12:38:21;;;;;;;;;;;19.60;99.90;;;;;;4955718;29;20175;-90
2022/03/21 12:40:47;;;;;;;;;;;19.80;99.90;;;;;;4955065;29;20074;-90
2022/03/21 12:43:13;;;;;;;;;;;20.10;99.90;;;;;;4953524;29;20446;-90
2022/03/21 12:45:39;;;;;;;;;;;20.20;99.90;;;;;;4954769;29;20268;-90
2022/03/21 12:48:07;;;;;;;;;;;20.40;99.90;;;;;;4955104;29;19911;-90
2022/03/21 12:50:33;;;;;;;;;;;20.70;99.90;;;;;;4953413;29;19919;-90
2022/03/21 12:53:00;;;;;;;;;;;20.80;99.90;;;;;;4954760;29;20005;-90
2022/03/21 12:55:26;;;;;;;;;;;21.00;99.90;;;;;;4955424;29;20021;-90
2022/03/21 12:57:52;;;;;;;;;;;21.00;99.90;;;;;;4953497;29;20414;-90
2022/03/21 13:00:18;;;;;;;;;;;20.80;99.90;;;;;;4954973;29;19911;-90
2022/03/21 13:02:43;;;;;;;;;;;20.70;99.90;;;;;;4954883;29;20260;-90
2022/03/21 13:10:39;;;;;;;;;;;20.60;99.90;;;;;;4954384;29;20441;-90
2022/03/21 13:13:05;;;;;;;;;;;20.60;99.90;;;;;;4954305;29;19911;-94
2022/03/21 13:15:33;;;;;;;;;;;20.90;99.90;;;;;;4953109;29;19933;-90
2022/03/21 13:18:03;;;;;;;;;;;21.10;99.90;;;;;;4953362;29;19911;-90
2022/03/21 13:20:40;;;;;;;;;;;21.40;99.90;;;;;;4954617;29;19965;-90
2022/03/21 13:23:06;;;;;;;;;;;21.40;99.90;;;;;;4953046;29;19915;-90
2022/03/21 13:25:35;;;;;;;;;;;21.50;99.90;;;;;;4954249;28;19977;-90
2022/03/21 13:28:08;;;;;;;;;;;21.60;99.90;;;;;;4960269;29;19911;-89
2022/03/21 13:30:34;;;;;;;;;;;21.60;99.90;;;;;;4960136;29;20377;-90
2022/03/21 13:32:59;;;;;;;;;;;21.60;99.90;;;;;;4952745;28;20005;-90
2022/03/21 13:35:25;;;;;;;;;;;21.80;99.90;;;;;;4954151;29;19946;-91
2022/03/21 13:38:04;;;;;;;;;;;21.90;99.90;;;;;;4952622;29;20330;-90
2022/03/21 13:40:29;;;;;;;;;;;22.00;99.90;;;;;;4954051;29;20363;-91
2022/03/21 13:43:13;;;;;;;;;;;22.20;99.90;;;;;;4952432;29;19918;-90
2022/03/21 13:45:42;;;;;;;;;;;22.50;99.90;;;;;;4953884;29;19915;-90
2022/03/21 13:48:08;;;;;;;;;;;22.80;99.60;;;;;;4953984;29;19910;-90
2022/03/21 13:50:38;;;;;;;;;;;23.00;99.10;;;;;;4953572;29;19973;-90
2022/03/21 13:53:23;;;;;;;;;;;23.10;99.10;;;;;;4953804;29;19950;-91
2022/03/21 13:55:48;;;;;;;;;;;23.20;98.80;;;;;;4953821;29;19911;-90
2022/03/21 13:58:23;;;;;;;;;;;23.10;98.50;;;;;;4953644;29;19906;-90
2022/03/21 14:00:48;;;;;;;;;;;22.90;98.70;;;;;;4952343;29;20283;-90
2022/03/21 14:03:30;;;;;;;;;;;23.00;98.90;;;;;;4952364;29;19934;-91
2022/03/21 14:05:56;;;;;;;;;;;23.10;98.80;;;;;;4951956;29;19966;-90
2022/03/21 14:08:22;;;;;;;;;;;23.30;98.80;;;;;;4953499;29;20376;-90
2022/03/21 14:11:04;;;;;;;;;;;23.40;98.50;;;;;;4953248;29;19918;-90
2022/03/21 14:13:32;;;;;;;;;;;23.30;98.30;;;;;;4951814;29;19911;-90
2022/03/21 14:15:58;;;;;;;;;;;23.60;98.60;;;;;;4953312;29;19910;-93
2022/03/21 14:18:25;;;;;;;;;;;23.70;98.50;;;;;;4953263;29;19957;-90
2022/03/21 14:20:50;;;;;;;;;;;23.80;98.60;;;;;;4951924;29;19934;-90
2022/03/21 14:23:16;;;;;;;;;;;23.90;97.60;;;;;;4951933;29;20368;-90
2022/03/21 14:28:26;;;;;;;;;;;24.20;96.60;;;;;;4953139;29;20413;-90
2022/03/21 14:30:51;;;;;;;;;;;24.40;97.00;;;;;;4952820;29;19919;-90
2022/03/21 14:33:17;;;;;;;;;;;24.30;96.90;;;;;;4953086;29;20423;-90
2022/03/21 14:35:43;;;;;;;;;;;24.60;96.60;;;;;;4953045;29;19910;-90
2022/03/21 14:38:09;;;;;;;;;;;24.30;96.30;;;;;;4953367;29;20022;-90
2022/03/21 14:40:38;;;;;;;;;;;24.20;96.50;;;;;;4952970;29;20430;-90
2022/03/21 14:43:06;;;;;;;;;;;24.10;96.80;;;;;;4953270;29;20013;-90
2022/03/21 14:45:32;;;;;;;;;;;23.90;96.70;;;;;;4952586;28;20383;-90
2022/03/21 14:47:58;;;;;;;;;;;23.60;97.10;;;;;;4952708;29;19914;-90
2022/03/21 14:50:24;;;;;;;;;;;23.50;97.20;;;;;;4952778;29;20433;-90
2022/03/21 14:52:49;;;;;;;;;;;23.30;97.20;;;;;;4951417;29;20410;-90
2022/03/21 14:55:15;;;;;;;;;;;23.20;97.80;;;;;;4952604;29;20158;-90
2022/03/21 14:57:40;;;;;;;;;;;23.20;97.70;;;;;;4952509;29;19910;-90
2022/03/21 15:00:06;;;;;;;;;;;23.50;97.40;;;;;;4952802;29;19921;-90
2022/03/21 15:02:32;;;;;;;;;;;23.70;97.30;;;;;;4952455;29;19911;-90
2022/03/21 15:04:57;;;;;;;;;;;23.80;97.00;;;;;;4952629;29;19917;-90
2022/03/21 15:07:25;;;;;;;;;;;24.00;97.10;;;;;;4952394;29;20438;-91
2022/03/21 15:12:35;;;;;;;;;;;23.70;96.80;;;;;;4952349;29;19969;-90
2022/03/21 15:15:01;;;;;;;;;;;23.40;96.90;;;;;;4952433;29;19914;-90
2022/03/21 15:17:26;;;;;;;;;;;23.00;97.80;;;;;;4958905;29;19911;-90
2022/03/21 15:19:52;;;;;;;;;;;22.80;98.00;;;;;;4955473;29;19911;-90
2022/03/21 15:22:17;;;;;;;;;;;22.60;97.80;;;;;;4951275;29;19965;-90
2022/03/21 15:24:43;;;;;;;;;;;22.70;98.10;;;;;;4950917;28;20001;-90
2022/03/21 15:27:10;;;;;;;;;;;22.90;98.00;;;;;;4952247;29;20342;-90
2022/03/21 15:29:36;;;;;;;;;;;23.20;97.20;;;;;;4952003;29;19918;-90
2022/03/21 15:32:02;;;;;;;;;;;23.10;96.90;;;;;;4952142;29;19917;-90